sensor_id;sensor_type;location;lat;lon;timestamp;pressure;altitude;pressure_sealevel;temperature;humidity
68628;BME280;55611;48.602;9.490;2023-09-07T00:01:06;97230;;;19.7;52
68628;BME280;55611;48.602;9.490;2023-09-07T00:03:35;97230;;;19.7;52
68628;BME280;55611;48.602;9.490;2023-09-07T00:06:06;97230;;;19.8;52
68628;BME280;55611;48.602;9.490;2023-09-07T00:08:36;97240;;;19.8;52
68628;BME280;55611;48.602;9.490;2023-09-07T00:11:07;97230;;;19.8;52
68628;BME280;55611;48.602;9.490;2023-09-07T00:13:37;97230;;;19.8;52
68628;BME280;55611;48.602;9.490;2023-09-07T00:16:08;97230;;;19.8;52
68628;BME280;55611;48.602;9.490;2023-09-07T00:18:38;97230;;;19.8;52
68628;BME280;55611;48.602;9.490;2023-09-07T00:21:09;97230;;;19.8;52
68628;BME280;55611;48.602;9.490;2023-09-07T00:23:39;97230;;;19.7;52
68628;BME280;55611;48.602;9.490;2023-09-07T00:26:10;97220;;;19.6;52
68628;BME280;55611;48.602;9.490;2023-09-07T00:28:40;97230;;;19.5;52
68628;BME280;55611;48.602;9.490;2023-09-07T00:31:11;97230;;;19.5;52
68628;BME280;55611;48.602;9.490;2023-09-07T00:33:41;97230;;;19.5;52
68628;BME280;55611;48.602;9.490;2023-09-07T00:36:12;97230;;;19.4;52
68628;BME280;55611;48.602;9.490;2023-09-07T00:38:42;97230;;;19.4;52
68628;BME280;55611;48.602;9.490;2023-09-07T00:41:13;97230;;;19.4;52
68628;BME280;55611;48.602;9.490;2023-09-07T00:43:43;97230;;;19.4;52
68628;BME280;55611;48.602;9.490;2023-09-07T00:46:14;97230;;;19.3;52.5
68628;BME280;55611;48.602;9.490;2023-09-07T00:48:44;97230;;;19.3;52.5
68628;BME280;55611;48.602;9.490;2023-09-07T00:51:15;97240;;;19.3;52.5
68628;BME280;55611;48.602;9.490;2023-09-07T00:53:45;97240;;;19.2;52.5
68628;BME280;55611;48.602;9.490;2023-09-07T00:56:16;97240;;;19.2;52.5
68628;BME280;55611;48.602;9.490;2023-09-07T00:58:46;97240;;;19.1;52.5
68628;BME280;55611;48.602;9.490;2023-09-07T01:01:17;97240;;;19.1;52.5
68628;BME280;55611;48.602;9.490;2023-09-07T01:03:48;97240;;;19.1;52.5
68628;BME280;55611;48.602;9.490;2023-09-07T01:06:20;97240;;;19;52.5
68628;BME280;55611;48.602;9.490;2023-09-07T01:08:49;97240;;;19;52.5
68628;BME280;55611;48.602;9.490;2023-09-07T01:11:19;97240;;;19;52.5
68628;BME280;55611;48.602;9.490;2023-09-07T01:13:50;97240;;;18.9;52.5
68628;BME280;55611;48.602;9.490;2023-09-07T01:16:20;97230;;;18.8;52.5
68628;BME280;55611;48.602;9.490;2023-09-07T01:18:51;97230;;;18.8;52.5
68628;BME280;55611;48.602;9.490;2023-09-07T01:21:21;97230;;;18.8;52.5
68628;BME280;55611;48.602;9.490;2023-09-07T01:23:52;97230;;;18.8;52.5
68628;BME280;55611;48.602;9.490;2023-09-07T01:26:22;97220;;;18.8;52.5
68628;BME280;55611;48.602;9.490;2023-09-07T01:28:53;97230;;;18.8;52.5
68628;BME280;55611;48.602;9.490;2023-09-07T01:31:23;97230;;;18.8;52.5
68628;BME280;55611;48.602;9.490;2023-09-07T01:33:54;97230;;;18.8;52.5
68628;BME280;55611;48.602;9.490;2023-09-07T01:36:24;97230;;;18.7;52.5
68628;BME280;55611;48.602;9.490;2023-09-07T01:38:55;97220;;;18.7;52.5
68628;BME280;55611;48.602;9.490;2023-09-07T01:41:25;97230;;;18.6;52.5
68628;BME280;55611;48.602;9.490;2023-09-07T01:43:56;97220;;;18.6;52.5
68628;BME280;55611;48.602;9.490;2023-09-07T01:46:26;97230;;;18.6;52.5
68628;BME280;55611;48.602;9.490;2023-09-07T01:48:57;97220;;;18.6;52.5
68628;BME280;55611;48.602;9.490;2023-09-07T01:51:27;97230;;;18.6;52.5
68628;BME280;55611;48.602;9.490;2023-09-07T01:53:58;97220;;;18.6;52.5
68628;BME280;55611;48.602;9.490;2023-09-07T01:56:28;97230;;;18.6;52.5
68628;BME280;55611;48.602;9.490;2023-09-07T01:58:59;97220;;;18.6;52.5
68628;BME280;55611;48.602;9.490;2023-09-07T02:01:30;97230;;;18.7;52.5
68628;BME280;55611;48.602;9.490;2023-09-07T02:04:00;97220;;;18.6;52.5
68628;BME280;55611;48.602;9.490;2023-09-07T02:06:31;97230;;;18.6;52.5
68628;BME280;55611;48.602;9.490;2023-09-07T02:09:01;97230;;;18.6;52.5
68628;BME280;55611;48.602;9.490;2023-09-07T02:11:32;97230;;;18.6;52.5
68628;BME280;55611;48.602;9.490;2023-09-07T02:14:02;97230;;;18.6;52.5
68628;BME280;55611;48.602;9.490;2023-09-07T02:16:32;97230;;;18.7;53
68628;BME280;55611;48.602;9.490;2023-09-07T02:19:03;97230;;;18.8;52.5
68628;BME280;55611;48.602;9.490;2023-09-07T02:21:34;97230;;;18.8;52.5
68628;BME280;55611;48.602;9.490;2023-09-07T02:24:04;97230;;;18.8;52.5
68628;BME280;55611;48.602;9.490;2023-09-07T02:26:35;97230;;;18.8;53
68628;BME280;55611;48.602;9.490;2023-09-07T02:29:05;97230;;;18.8;53
68628;BME280;55611;48.602;9.490;2023-09-07T02:31:36;97230;;;18.7;53
68628;BME280;55611;48.602;9.490;2023-09-07T02:34:06;97230;;;18.7;53
68628;BME280;55611;48.602;9.490;2023-09-07T02:36:37;97230;;;18.7;53
68628;BME280;55611;48.602;9.490;2023-09-07T02:39:07;97230;;;18.7;53
68628;BME280;55611;48.602;9.490;2023-09-07T02:41:38;97230;;;18.6;53
68628;BME280;55611;48.602;9.490;2023-09-07T02:44:08;97230;;;18.6;53
68628;BME280;55611;48.602;9.490;2023-09-07T02:46:39;97230;;;18.5;53
68628;BME280;55611;48.602;9.490;2023-09-07T02:49:09;97240;;;18.5;53
68628;BME280;55611;48.602;9.490;2023-09-07T02:51:40;97230;;;18.4;53
68628;BME280;55611;48.602;9.490;2023-09-07T02:54:10;97230;;;18.4;53
68628;BME280;55611;48.602;9.490;2023-09-07T02:56:41;97230;;;18.4;53
68628;BME280;55611;48.602;9.490;2023-09-07T02:59:11;97230;;;18.4;53
68628;BME280;55611;48.602;9.490;2023-09-07T03:01:42;97220;;;18.5;53
68628;BME280;55611;48.602;9.490;2023-09-07T03:04:12;97220;;;18.4;53
68628;BME280;55611;48.602;9.490;2023-09-07T03:06:43;97220;;;18.4;53
68628;BME280;55611;48.602;9.490;2023-09-07T03:09:13;97220;;;18.4;53
68628;BME280;55611;48.602;9.490;2023-09-07T03:11:44;97220;;;18.3;53
68628;BME280;55611;48.602;9.490;2023-09-07T03:14:14;97210;;;18.4;53
68628;BME280;55611;48.602;9.490;2023-09-07T03:16:45;97210;;;18.3;53
68628;BME280;55611;48.602;9.490;2023-09-07T03:19:16;97210;;;18.3;53
68628;BME280;55611;48.602;9.490;2023-09-07T03:21:46;97210;;;18.3;53
68628;BME280;55611;48.602;9.490;2023-09-07T03:24:16;97210;;;18.2;53
68628;BME280;55611;48.602;9.490;2023-09-07T03:26:47;97210;;;18.1;53
68628;BME280;55611;48.602;9.490;2023-09-07T03:29:17;97210;;;18.1;53
68628;BME280;55611;48.602;9.490;2023-09-07T03:31:48;97210;;;18;53
68628;BME280;55611;48.602;9.490;2023-09-07T03:34:18;97210;;;18;53
68628;BME280;55611;48.602;9.490;2023-09-07T03:36:49;97210;;;17.9;53
68628;BME280;55611;48.602;9.490;2023-09-07T03:39:19;97210;;;17.9;53
68628;BME280;55611;48.602;9.490;2023-09-07T03:41:50;97210;;;17.9;53
68628;BME280;55611;48.602;9.490;2023-09-07T03:44:21;97210;;;17.9;53
68628;BME280;55611;48.602;9.490;2023-09-07T03:46:51;97210;;;18;53
68628;BME280;55611;48.602;9.490;2023-09-07T03:49:22;97210;;;17.9;53.5
68628;BME280;55611;48.602;9.490;2023-09-07T03:51:52;97210;;;17.9;53.5
68628;BME280;55611;48.602;9.490;2023-09-07T03:54:23;97210;;;17.9;53.5
68628;BME280;55611;48.602;9.490;2023-09-07T03:56:53;97210;;;17.9;53.5
68628;BME280;55611;48.602;9.490;2023-09-07T03:59:24;97210;;;17.9;53.5
68628;BME280;55611;48.602;9.490;2023-09-07T04:01:54;97210;;;17.9;53.5
68628;BME280;55611;48.602;9.490;2023-09-07T04:04:25;97210;;;17.9;53.5
68628;BME280;55611;48.602;9.490;2023-09-07T04:06:55;97210;;;17.9;53.5
68628;BME280;55611;48.602;9.490;2023-09-07T04:09:26;97200;;;17.8;53.5
68628;BME280;55611;48.602;9.490;2023-09-07T04:11:56;97200;;;17.8;53.5
68628;BME280;55611;48.602;9.490;2023-09-07T04:14:27;97200;;;17.8;53.5
68628;BME280;55611;48.602;9.490;2023-09-07T04:16:57;97200;;;17.7;53.5
68628;BME280;55611;48.602;9.490;2023-09-07T04:19:28;97200;;;17.7;53.5
68628;BME280;55611;48.602;9.490;2023-09-07T04:21:58;97200;;;17.7;53.5
68628;BME280;55611;48.602;9.490;2023-09-07T04:24:29;97200;;;17.7;53.5
68628;BME280;55611;48.602;9.490;2023-09-07T04:27:00;97200;;;17.7;53.5
68628;BME280;55611;48.602;9.490;2023-09-07T04:29:30;97200;;;17.7;53.5
68628;BME280;55611;48.602;9.490;2023-09-07T04:32:00;97200;;;17.7;53.5
68628;BME280;55611;48.602;9.490;2023-09-07T04:34:31;97200;;;17.7;53.5
68628;BME280;55611;48.602;9.490;2023-09-07T04:37:01;97200;;;17.7;53.5
68628;BME280;55611;48.602;9.490;2023-09-07T04:39:32;97210;;;17.7;53.5
68628;BME280;55611;48.602;9.490;2023-09-07T04:42:02;97200;;;17.7;53.5
68628;BME280;55611;48.602;9.490;2023-09-07T04:44:33;97210;;;17.7;53.5
68628;BME280;55611;48.602;9.490;2023-09-07T04:47:03;97210;;;17.7;53.5
68628;BME280;55611;48.602;9.490;2023-09-07T04:49:34;97200;;;17.8;53.5
68628;BME280;55611;48.602;9.490;2023-09-07T04:52:04;97200;;;17.8;53.5
68628;BME280;55611;48.602;9.490;2023-09-07T04:54:35;97200;;;17.8;53.5
68628;BME280;55611;48.602;9.490;2023-09-07T04:57:05;97200;;;17.7;53.5
68628;BME280;55611;48.602;9.490;2023-09-07T04:59:36;97210;;;17.7;53.5
68628;BME280;55611;48.602;9.490;2023-09-07T05:02:06;97210;;;17.7;53.5
68628;BME280;55611;48.602;9.490;2023-09-07T05:04:37;97210;;;17.7;53.5
68628;BME280;55611;48.602;9.490;2023-09-07T05:07:08;97210;;;17.7;53.5
68628;BME280;55611;48.602;9.490;2023-09-07T05:09:38;97210;;;17.7;53.5
68628;BME280;55611;48.602;9.490;2023-09-07T05:12:09;97210;;;17.8;53.5
68628;BME280;55611;48.602;9.490;2023-09-07T05:14:39;97220;;;17.9;53.5
68628;BME280;55611;48.602;9.490;2023-09-07T05:17:10;97220;;;18;53.5
68628;BME280;55611;48.602;9.490;2023-09-07T05:19:40;97210;;;18.1;53.5
68628;BME280;55611;48.602;9.490;2023-09-07T05:22:11;97220;;;18.2;53.5
68628;BME280;55611;48.602;9.490;2023-09-07T05:24:41;97220;;;18.2;53.5
68628;BME280;55611;48.602;9.490;2023-09-07T05:27:12;97230;;;18.3;53.5
68628;BME280;55611;48.602;9.490;2023-09-07T05:29:42;97230;;;18.4;53.5
68628;BME280;55611;48.602;9.490;2023-09-07T05:32:13;97230;;;18.4;53.5
68628;BME280;55611;48.602;9.490;2023-09-07T05:34:43;97240;;;18.4;53.5
68628;BME280;55611;48.602;9.490;2023-09-07T05:37:14;97230;;;18.4;53.5
68628;BME280;55611;48.602;9.490;2023-09-07T05:39:44;97240;;;18.4;53.5
68628;BME280;55611;48.602;9.490;2023-09-07T05:42:15;97240;;;18.5;53.5
68628;BME280;55611;48.602;9.490;2023-09-07T05:44:45;97250;;;18.5;53.5
68628;BME280;55611;48.602;9.490;2023-09-07T05:47:16;97240;;;18.6;53.5
68628;BME280;55611;48.602;9.490;2023-09-07T05:49:46;97240;;;18.6;53.5
68628;BME280;55611;48.602;9.490;2023-09-07T05:52:17;97240;;;18.7;53.5
68628;BME280;55611;48.602;9.490;2023-09-07T05:54:47;97240;;;18.8;53.5
68628;BME280;55611;48.602;9.490;2023-09-07T05:57:18;97240;;;18.8;53.5
68628;BME280;55611;48.602;9.490;2023-09-07T05:59:48;97240;;;19;53.5
68628;BME280;55611;48.602;9.490;2023-09-07T06:02:19;97240;;;19;53.5
68628;BME280;55611;48.602;9.490;2023-09-07T06:04:49;97240;;;19.1;53.5
68628;BME280;55611;48.602;9.490;2023-09-07T06:07:20;97240;;;19.2;53.5
68628;BME280;55611;48.602;9.490;2023-09-07T06:09:50;97240;;;19.3;53.5
68628;BME280;55611;48.602;9.490;2023-09-07T06:12:21;97240;;;19.4;53.5
68628;BME280;55611;48.602;9.490;2023-09-07T06:14:51;97230;;;19.4;53.5
68628;BME280;55611;48.602;9.490;2023-09-07T06:17:22;97240;;;19.6;53.5
68628;BME280;55611;48.602;9.490;2023-09-07T06:19:53;97240;;;19.7;53.5
68628;BME280;55611;48.602;9.490;2023-09-07T06:22:23;97230;;;19.7;53.5
68628;BME280;55611;48.602;9.490;2023-09-07T06:24:53;97230;;;19.7;53.5
68628;BME280;55611;48.602;9.490;2023-09-07T06:27:24;97230;;;19.7;53.5
68628;BME280;55611;48.602;9.490;2023-09-07T06:29:54;97230;;;19.7;53.5
68628;BME280;55611;48.602;9.490;2023-09-07T06:32:25;97230;;;19.8;53.5
68628;BME280;55611;48.602;9.490;2023-09-07T06:34:56;97230;;;19.8;53.5
68628;BME280;55611;48.602;9.490;2023-09-07T06:37:26;97230;;;19.8;53.5
68628;BME280;55611;48.602;9.490;2023-09-07T06:39:57;97230;;;19.8;53.5
68628;BME280;55611;48.602;9.490;2023-09-07T06:42:27;97240;;;19.9;53.5
68628;BME280;55611;48.602;9.490;2023-09-07T06:44:58;97240;;;20;53.5
68628;BME280;55611;48.602;9.490;2023-09-07T06:47:28;97240;;;20.1;53.5
68628;BME280;55611;48.602;9.490;2023-09-07T06:49:59;97250;;;20.2;53.5
68628;BME280;55611;48.602;9.490;2023-09-07T06:52:29;97250;;;20.2;53.5
68628;BME280;55611;48.602;9.490;2023-09-07T06:55:00;97250;;;20.3;53.5
68628;BME280;55611;48.602;9.490;2023-09-07T06:57:30;97250;;;20.4;53.5
68628;BME280;55611;48.602;9.490;2023-09-07T07:00:02;97260;;;20.4;53.5
68628;BME280;55611;48.602;9.490;2023-09-07T07:02:31;97250;;;20.5;53.5
68628;BME280;55611;48.602;9.490;2023-09-07T07:05:02;97250;;;20.6;53.5
68628;BME280;55611;48.602;9.490;2023-09-07T07:07:32;97250;;;20.7;53.5
68628;BME280;55611;48.602;9.490;2023-09-07T07:10:03;97240;;;20.8;53.5
68628;BME280;55611;48.602;9.490;2023-09-07T07:12:33;97250;;;20.9;53.5
68628;BME280;55611;48.602;9.490;2023-09-07T07:15:04;97250;;;21;53.5
68628;BME280;55611;48.602;9.490;2023-09-07T07:17:34;97250;;;21.1;53.5
68628;BME280;55611;48.602;9.490;2023-09-07T07:20:05;97250;;;21.1;53.5
68628;BME280;55611;48.602;9.490;2023-09-07T07:22:35;97250;;;21.2;53.5
68628;BME280;55611;48.602;9.490;2023-09-07T07:25:06;97250;;;21.3;53.5
68628;BME280;55611;48.602;9.490;2023-09-07T07:27:36;97240;;;21.4;53.5
68628;BME280;55611;48.602;9.490;2023-09-07T07:30:07;97240;;;21.5;53.5
68628;BME280;55611;48.602;9.490;2023-09-07T07:32:37;97240;;;21.6;53.5
68628;BME280;55611;48.602;9.490;2023-09-07T07:35:08;97240;;;21.6;53.5
68628;BME280;55611;48.602;9.490;2023-09-07T07:37:38;97250;;;21.8;53
68628;BME280;55611;48.602;9.490;2023-09-07T07:40:09;97250;;;21.8;53
68628;BME280;55611;48.602;9.490;2023-09-07T07:42:39;97250;;;21.9;53.5
68628;BME280;55611;48.602;9.490;2023-09-07T07:45:10;97250;;;22;53.5
68628;BME280;55611;48.602;9.490;2023-09-07T07:47:41;97240;;;22.1;53
68628;BME280;55611;48.602;9.490;2023-09-07T07:50:11;97240;;;22.2;53
68628;BME280;55611;48.602;9.490;2023-09-07T07:52:42;97240;;;22.3;53
68628;BME280;55611;48.602;9.490;2023-09-07T07:55:12;97240;;;22.3;53
68628;BME280;55611;48.602;9.490;2023-09-07T07:57:43;97240;;;22.4;53
68628;BME280;55611;48.602;9.490;2023-09-07T08:00:13;97240;;;22.4;53
68628;BME280;55611;48.602;9.490;2023-09-07T08:02:44;97240;;;22.5;53
68628;BME280;55611;48.602;9.490;2023-09-07T08:05:14;97240;;;22.6;53
68628;BME280;55611;48.602;9.490;2023-09-07T08:07:45;97240;;;22.7;53
68628;BME280;55611;48.602;9.490;2023-09-07T08:10:15;97250;;;22.8;53
68628;BME280;55611;48.602;9.490;2023-09-07T08:12:46;97250;;;22.9;53
68628;BME280;55611;48.602;9.490;2023-09-07T08:15:16;97250;;;23;53
68628;BME280;55611;48.602;9.490;2023-09-07T08:17:47;97250;;;23.1;53
68628;BME280;55611;48.602;9.490;2023-09-07T08:20:17;97240;;;23.2;53
68628;BME280;55611;48.602;9.490;2023-09-07T08:22:48;97240;;;23.2;53
68628;BME280;55611;48.602;9.490;2023-09-07T08:25:18;97230;;;23.3;53
68628;BME280;55611;48.602;9.490;2023-09-07T08:27:49;97230;;;23.3;53
68628;BME280;55611;48.602;9.490;2023-09-07T08:30:19;97230;;;23.4;53
68628;BME280;55611;48.602;9.490;2023-09-07T08:32:50;97230;;;23.5;53
68628;BME280;55611;48.602;9.490;2023-09-07T08:35:20;97230;;;23.5;53
68628;BME280;55611;48.602;9.490;2023-09-07T08:37:51;97230;;;23.7;53
68628;BME280;55611;48.602;9.490;2023-09-07T08:40:21;97230;;;23.8;53
68628;BME280;55611;48.602;9.490;2023-09-07T08:42:52;97230;;;23.9;53
68628;BME280;55611;48.602;9.490;2023-09-07T08:45:22;97230;;;24;52.5
68628;BME280;55611;48.602;9.490;2023-09-07T08:47:53;97230;;;24.1;52.5
68628;BME280;55611;48.602;9.490;2023-09-07T08:50:23;97230;;;24.2;52.5
68628;BME280;55611;48.602;9.490;2023-09-07T08:52:54;97230;;;24.3;52.5
68628;BME280;55611;48.602;9.490;2023-09-07T08:55:24;97230;;;24.5;52.5
68628;BME280;55611;48.602;9.490;2023-09-07T08:57:55;97230;;;24.6;52.5
68628;BME280;55611;48.602;9.490;2023-09-07T09:00:25;97240;;;24.5;52.5
68628;BME280;55611;48.602;9.490;2023-09-07T09:02:56;97230;;;24.6;52.5
68628;BME280;55611;48.602;9.490;2023-09-07T09:05:27;97240;;;24.7;52.5
68628;BME280;55611;48.602;9.490;2023-09-07T09:08:01;97240;;;24.7;52.5
68628;BME280;55611;48.602;9.490;2023-09-07T09:10:27;97230;;;24.8;52.5
68628;BME280;55611;48.602;9.490;2023-09-07T09:12:58;97230;;;25;52
68628;BME280;55611;48.602;9.490;2023-09-07T09:15:29;97230;;;25.1;52
68628;BME280;55611;48.602;9.490;2023-09-07T09:18:08;97230;;;25.1;52
68628;BME280;55611;48.602;9.490;2023-09-07T09:20:30;97230;;;25.1;52.5
68628;BME280;55611;48.602;9.490;2023-09-07T09:23:03;97230;;;25.1;52.5
68628;BME280;55611;48.602;9.490;2023-09-07T09:25:31;97220;;;25.2;52
68628;BME280;55611;48.602;9.490;2023-09-07T09:28:01;97220;;;25.3;52
68628;BME280;55611;48.602;9.490;2023-09-07T09:30:32;97230;;;25.5;52
68628;BME280;55611;48.602;9.490;2023-09-07T09:33:02;97230;;;25.6;52
68628;BME280;55611;48.602;9.490;2023-09-07T09:35:33;97220;;;25.6;52
68628;BME280;55611;48.602;9.490;2023-09-07T09:38:03;97220;;;25.6;52
68628;BME280;55611;48.602;9.490;2023-09-07T09:40:34;97220;;;25.7;52
68628;BME280;55611;48.602;9.490;2023-09-07T09:43:04;97220;;;25.7;52
68628;BME280;55611;48.602;9.490;2023-09-07T09:45:35;97210;;;25.7;52
68628;BME280;55611;48.602;9.490;2023-09-07T09:48:05;97210;;;25.8;52
68628;BME280;55611;48.602;9.490;2023-09-07T09:50:36;97210;;;25.9;52
68628;BME280;55611;48.602;9.490;2023-09-07T09:53:06;97210;;;26;52
68628;BME280;55611;48.602;9.490;2023-09-07T09:55:37;97210;;;26;51.5
68628;BME280;55611;48.602;9.490;2023-09-07T09:58:07;97210;;;26.1;51.5
68628;BME280;55611;48.602;9.490;2023-09-07T10:00:38;97210;;;26.3;51.5
68628;BME280;55611;48.602;9.490;2023-09-07T10:03:09;97210;;;26.4;51.5
68628;BME280;55611;48.602;9.490;2023-09-07T10:05:39;97210;;;26.4;51.5
68628;BME280;55611;48.602;9.490;2023-09-07T10:08:11;97210;;;26.5;51.5
68628;BME280;55611;48.602;9.490;2023-09-07T10:10:42;97200;;;26.5;51.5
68628;BME280;55611;48.602;9.490;2023-09-07T10:13:13;97200;;;26.6;51.5
68628;BME280;55611;48.602;9.490;2023-09-07T10:15:41;97200;;;26.6;51.5
68628;BME280;55611;48.602;9.490;2023-09-07T10:18:13;97190;;;26.7;51.5
68628;BME280;55611;48.602;9.490;2023-09-07T10:20:50;97190;;;26.9;51.5
68628;BME280;55611;48.602;9.490;2023-09-07T10:23:12;97190;;;27;51.5
68628;BME280;55611;48.602;9.490;2023-09-07T10:25:46;97200;;;27.1;51.5
68628;BME280;55611;48.602;9.490;2023-09-07T10:28:28;97190;;;27.1;51.5
68628;BME280;55611;48.602;9.490;2023-09-07T10:30:44;97190;;;27.2;51
68628;BME280;55611;48.602;9.490;2023-09-07T10:33:21;97200;;;27.2;51
68628;BME280;55611;48.602;9.490;2023-09-07T10:35:46;97190;;;27.2;51
68628;BME280;55611;48.602;9.490;2023-09-07T10:38:15;97190;;;27.1;51
68628;BME280;55611;48.602;9.490;2023-09-07T10:40:47;97190;;;27.1;51
68628;BME280;55611;48.602;9.490;2023-09-07T10:43:17;97190;;;27.2;51
68628;BME280;55611;48.602;9.490;2023-09-07T10:45:47;97180;;;27.3;51
68628;BME280;55611;48.602;9.490;2023-09-07T10:48:18;97180;;;27.4;51
68628;BME280;55611;48.602;9.490;2023-09-07T10:50:48;97180;;;27.4;51
68628;BME280;55611;48.602;9.490;2023-09-07T10:53:27;97180;;;27.5;51
68628;BME280;55611;48.602;9.490;2023-09-07T10:55:49;97180;;;27.8;51
68628;BME280;55611;48.602;9.490;2023-09-07T10:58:24;97180;;;27.8;51
68628;BME280;55611;48.602;9.490;2023-09-07T11:00:52;97180;;;27.7;51
68628;BME280;55611;48.602;9.490;2023-09-07T11:03:21;97180;;;27.7;51
68628;BME280;55611;48.602;9.490;2023-09-07T11:05:51;97180;;;27.9;51
68628;BME280;55611;48.602;9.490;2023-09-07T11:08:22;97170;;;28;51
68628;BME280;55611;48.602;9.490;2023-09-07T11:10:52;97180;;;28;51
68628;BME280;55611;48.602;9.490;2023-09-07T11:13:23;97170;;;28;51
68628;BME280;55611;48.602;9.490;2023-09-07T11:15:54;97170;;;28;51
68628;BME280;55611;48.602;9.490;2023-09-07T11:18:24;97180;;;28;51
68628;BME280;55611;48.602;9.490;2023-09-07T11:20:55;97170;;;28.2;51
68628;BME280;55611;48.602;9.490;2023-09-07T11:23:25;97170;;;28.2;50.5
68628;BME280;55611;48.602;9.490;2023-09-07T11:25:55;97160;;;28.3;51
68628;BME280;55611;48.602;9.490;2023-09-07T11:28:26;97160;;;28.3;51
68628;BME280;55611;48.602;9.490;2023-09-07T11:30:57;97160;;;28.3;50.5
68628;BME280;55611;48.602;9.490;2023-09-07T11:33:31;97160;;;28.5;50.5
68628;BME280;55611;48.602;9.490;2023-09-07T11:35:57;97160;;;28.4;50.5
68628;BME280;55611;48.602;9.490;2023-09-07T11:38:29;97150;;;28.4;50.5
68628;BME280;55611;48.602;9.490;2023-09-07T11:40:58;97150;;;28.6;50.5
68628;BME280;55611;48.602;9.490;2023-09-07T11:43:29;97150;;;28.6;50.5
68628;BME280;55611;48.602;9.490;2023-09-07T11:46:02;97140;;;28.6;51
68628;BME280;55611;48.602;9.490;2023-09-07T11:48:30;97150;;;28.5;50.5
68628;BME280;55611;48.602;9.490;2023-09-07T11:51:01;97130;;;28.7;50.5
68628;BME280;55611;48.602;9.490;2023-09-07T11:53:31;97140;;;28.8;50.5
68628;BME280;55611;48.602;9.490;2023-09-07T11:56:02;97140;;;28.8;50.5
68628;BME280;55611;48.602;9.490;2023-09-07T11:58:32;97140;;;28.8;50.5
68628;BME280;55611;48.602;9.490;2023-09-07T12:01:03;97140;;;29.1;50.5
68628;BME280;55611;48.602;9.490;2023-09-07T12:03:33;97130;;;29.1;50.5
68628;BME280;55611;48.602;9.490;2023-09-07T12:06:04;97130;;;29;50.5
68628;BME280;55611;48.602;9.490;2023-09-07T12:08:34;97130;;;29.1;50.5
68628;BME280;55611;48.602;9.490;2023-09-07T12:11:05;97130;;;29.1;50.5
68628;BME280;55611;48.602;9.490;2023-09-07T12:13:35;97130;;;29.3;50.5
68628;BME280;55611;48.602;9.490;2023-09-07T12:16:06;97130;;;29.2;50.5
68628;BME280;55611;48.602;9.490;2023-09-07T12:18:36;97130;;;29.2;50.5
68628;BME280;55611;48.602;9.490;2023-09-07T12:21:07;97130;;;29.4;50.5
68628;BME280;55611;48.602;9.490;2023-09-07T12:23:37;97120;;;29.6;50.5
68628;BME280;55611;48.602;9.490;2023-09-07T12:26:08;97120;;;29.7;50.5
68628;BME280;55611;48.602;9.490;2023-09-07T12:28:38;97120;;;29.7;50
68628;BME280;55611;48.602;9.490;2023-09-07T12:31:09;97120;;;29.8;50
68628;BME280;55611;48.602;9.490;2023-09-07T12:33:39;97120;;;29.9;50
68628;BME280;55611;48.602;9.490;2023-09-07T12:36:10;97110;;;29.9;50
68628;BME280;55611;48.602;9.490;2023-09-07T12:38:40;97110;;;29.9;50
68628;BME280;55611;48.602;9.490;2023-09-07T12:41:11;97110;;;30;50
68628;BME280;55611;48.602;9.490;2023-09-07T12:43:41;97110;;;30;50
68628;BME280;55611;48.602;9.490;2023-09-07T12:46:12;97110;;;29.9;50
68628;BME280;55611;48.602;9.490;2023-09-07T12:48:42;97110;;;29.8;50
68628;BME280;55611;48.602;9.490;2023-09-07T12:51:13;97110;;;29.6;50
68628;BME280;55611;48.602;9.490;2023-09-07T12:53:43;97110;;;29.6;50
68628;BME280;55611;48.602;9.490;2023-09-07T12:56:14;97110;;;29.8;50
68628;BME280;55611;48.602;9.490;2023-09-07T12:58:44;97110;;;29.9;50
68628;BME280;55611;48.602;9.490;2023-09-07T13:01:15;97100;;;29.8;50
68628;BME280;55611;48.602;9.490;2023-09-07T13:03:46;97110;;;30;50
68628;BME280;55611;48.602;9.490;2023-09-07T13:06:16;97100;;;30;50
68628;BME280;55611;48.602;9.490;2023-09-07T13:08:46;97100;;;30;50
68628;BME280;55611;48.602;9.490;2023-09-07T13:11:17;97100;;;30.1;50
68628;BME280;55611;48.602;9.490;2023-09-07T13:13:47;97100;;;30;50
68628;BME280;55611;48.602;9.490;2023-09-07T13:16:18;97100;;;30.1;49.5
68628;BME280;55611;48.602;9.490;2023-09-07T13:18:49;97100;;;30.1;49.5
68628;BME280;55611;48.602;9.490;2023-09-07T13:21:19;97100;;;30.2;49.5
68628;BME280;55611;48.602;9.490;2023-09-07T13:23:50;97100;;;30.3;49.5
68628;BME280;55611;48.602;9.490;2023-09-07T13:26:20;97090;;;30.3;49.5
68628;BME280;55611;48.602;9.490;2023-09-07T13:28:51;97090;;;30.2;49.5
68628;BME280;55611;48.602;9.490;2023-09-07T13:31:21;97090;;;30.3;49.5
68628;BME280;55611;48.602;9.490;2023-09-07T13:33:52;97090;;;30.6;49.5
68628;BME280;55611;48.602;9.490;2023-09-07T13:36:22;97090;;;30.6;49.5
68628;BME280;55611;48.602;9.490;2023-09-07T13:38:53;97090;;;30.4;49.5
68628;BME280;55611;48.602;9.490;2023-09-07T13:41:23;97090;;;30.5;49.5
68628;BME280;55611;48.602;9.490;2023-09-07T13:43:54;97090;;;30.6;49.5
68628;BME280;55611;48.602;9.490;2023-09-07T13:46:24;97080;;;30.5;49.5
68628;BME280;55611;48.602;9.490;2023-09-07T13:48:55;97080;;;30.4;49
68628;BME280;55611;48.602;9.490;2023-09-07T13:51:25;97080;;;30.3;49
68628;BME280;55611;48.602;9.490;2023-09-07T13:53:56;97080;;;30.2;49.5
68628;BME280;55611;48.602;9.490;2023-09-07T13:56:26;97080;;;30.1;49.5
68628;BME280;55611;48.602;9.490;2023-09-07T13:58:57;97080;;;30.1;49.5
68628;BME280;55611;48.602;9.490;2023-09-07T14:01:27;97080;;;30;49.5
68628;BME280;55611;48.602;9.490;2023-09-07T14:03:58;97080;;;30;49.5
68628;BME280;55611;48.602;9.490;2023-09-07T14:06:28;97080;;;29.9;49.5
68628;BME280;55611;48.602;9.490;2023-09-07T14:08:59;97080;;;29.9;49.5
68628;BME280;55611;48.602;9.490;2023-09-07T14:11:29;97080;;;29.9;49.5
68628;BME280;55611;48.602;9.490;2023-09-07T14:14:00;97080;;;30;49.5
68628;BME280;55611;48.602;9.490;2023-09-07T14:16:30;97090;;;30;49.5
68628;BME280;55611;48.602;9.490;2023-09-07T14:19:01;97090;;;30.1;49.5
68628;BME280;55611;48.602;9.490;2023-09-07T14:21:31;97090;;;30;49.5
68628;BME280;55611;48.602;9.490;2023-09-07T14:24:02;97080;;;30;49.5
68628;BME280;55611;48.602;9.490;2023-09-07T14:26:32;97090;;;30;49.5